Terminal Aerodrome Forecast
Issued by NWS St Louis, MO

Home | Current Version | Previous Version | Text Only | Print | Product List | Glossary On
Versions: 1 2 3 4 5 6 7 8 9 10 11 12 13 14 15 16 17 18 19 20 21 22 23 24 25 26 27
000
FTUS43 KLSX 121724
TAFSTL
TAF
KSTL 121724Z 1218/1324 31011G17KT P6SM FEW250
     FM122300 30006KT P6SM FEW250
     FM130400 24004KT P6SM FEW250
     FM131200 19005KT P6SM FEW080 WS012/24040KT
     FM131700 24009KT P6SM SCT250
     FM132000 27011G22KT P6SM SCT250
     FM132200 29011G21KT P6SM SCT045
     FM132300 30010G18KT P6SM BKN040=

USA.gov is the U.S. government's official web portal to all federal, state and local government web resources and services.